x

North Equatorial Two - 890 Nm East Of Martinique (41041) Wave Buoy

3:50pm - Sun 26th Feb 2017 All times are UTC.

  • Sig Wave height 7.9ft
  • Swell Direction
  • Peak Period 8s
  • Average Period 6s
  • Wind
    20mph, 25mph gusts
  • Sea Temp 78°f
  • Air Temp 75°f
  • Sea Pressure 1014.5mb

More Historic Weather Station data

Upgrade to MSW Pro to gain access to the past 30 days of data for over 8000 Wavebouys and Weather Stations around the globe.

Join Pro

Comparision Forecast

View Surf forecast
   
Sun 02/26 3:50pm 8ft 8s 6s 20 25 mph 1014.5mb 78f 75f
2:50pm 7.5ft 8s 6s 18 20 mph 1015.3mb 78f 75f
1:50pm 7.5ft 8s 6s 18 22 mph 1015.9mb 78f 75f
12:50pm 7.5ft 8s 6s 27 29 mph 1015.7mb 78f 73f
11:50am 7ft 8s 6s 22 27 mph 1015.1mb 78f 76f
10:50am 6.5ft 8s 6s 20 25 mph 1014.8mb 78f 76f
9:50am 6.5ft 8s 6s 16 20 mph 1014.6mb 78f 73f
8:50am 7ft 8s 6s 18 22 mph 1013.9mb 78f 75f
7:50am 7ft 11s 6s 18 22 mph 1014.3mb 78f 75f
6:50am 7.5ft 12s 6s 18 20 mph 1014.2mb 78f 75f
5:50am 7.5ft 8s 6s 18 20 mph 1014.6mb 78f 76f
4:50am 7.5ft 8s 6s 18 20 mph 1015.1mb 78f 76f
3:50am 7.5ft 12s 6s 20 27 mph 1015.6mb 78f 76f
2:50am 8ft 7s 6s 20 25 mph 1016.1mb 78f 76f
1:50am 8ft 7s 6s 20 25 mph 1016.2mb 78f 75f
12:50am 8ft 13s 6s 22 27 mph 1016.1mb 78f 76f
Sat 02/25 11:50pm 7ft 12s 6s 22 27 mph 1015.6mb 78f 76f
10:50pm 7.5ft 12s 6s 22 25 mph 1014.8mb 78f 76f
9:50pm 7ft 12s 6s 20 25 mph 1014.4mb 78f 74f
8:50pm 7ft 13s 6s 22 25 mph 1014mb 78f 75f
7:50pm 7ft 13s 6s 22 31 mph 1013.6mb 78f 74f
6:50pm 7ft 7s 6s 18 22 mph 1013.7mb 78f 75f
5:50pm 7ft 13s 7s 20 22 mph 1013.7mb 78f 76f
4:50pm 7.5ft 13s 6s 16 20 mph 1014.5mb 78f 75f
3:50pm 7.5ft 14s 7s 18 20 mph 1014.8mb 78f 76f
2:50pm 8ft 13s 7s 18 20 mph 1015.3mb 78f 76f
1:50pm 8ft 13s 7s 18 22 mph 1016mb 78f 76f
12:50pm 8ft 14s 7s 18 20 mph 1016.1mb 78f 76f
11:50am 8ft 14s 7s 18 22 mph 1015.7mb 78f 76f
10:50am 8.5ft 13s 7s 18 20 mph 1015.3mb 78f 76f
9:50am 8.5ft 13s 7s 18 22 mph 1014.7mb 78f 76f
8:50am 9ft 14s 7s 18 20 mph 1014mb 78f 75f
7:50am 8ft 14s 7s 18 20 mph 1013.5mb 78f 76f
6:50am 9ft 14s 7s 18 22 mph 1013.6mb 78f 76f
5:50am 9.5ft 14s 8s 18 22 mph 1014mb 78f 76f
4:50am 8ft 14s 7s 22 25 mph 1014.3mb 78f 76f
3:50am 9ft 14s 8s 13 20 mph 1015.2mb 78f 75f
2:50am 7ft 15s 7s 18 20 mph 1015.8mb 78f 76f
1:50am 7ft 15s 7s 18 22 mph 1016mb 78f 76f
12:50am 6.5ft 15s 6s 20 22 mph 1016mb 78f 76f
Fri 02/24 11:50pm 6ft 16s 6s 18 22 mph 1015.7mb 78f 76f
10:50pm 5ft 7s 5s 18 20 mph 1015.5mb 78f 77f
9:50pm 5ft 7s 5s 18 22 mph 1015mb 78f 77f
8:50pm 5ft 8s 6s 18 22 mph 1014.3mb 78f 76f
7:50pm 5ft 7s 5s 16 20 mph 1014.2mb 78f 77f
6:50pm 4.5ft 7s 5s 16 18 mph 1014mb 78f 77f
5:50pm 4.5ft 7s 5s 16 18 mph 1013.9mb 78f 77f
4:50pm 5ft 6s 5s 13 18 mph 1014.6mb 78f 77f
3:50pm 5ft 7s 5s 13 16 mph 1015.6mb 78f 77f
2:50pm 5ft 7s 5s 13 16 mph 1016.2mb 78f 77f
1:50pm 5ft 7s 5s 16 18 mph 1016.7mb 78f 77f
12:50pm 5ft 8s 5s 16 18 mph 1016.8mb 78f 77f
11:50am 5ft 7s 5s 16 20 mph 1016.6mb 78f 77f
10:50am 4.5ft 7s 5s 16 18 mph 1015.9mb 78f 77f
9:50am 4.5ft 9s 5s 16 18 mph 1015.1mb 78f 76f
8:50am 5ft 7s 5s 16 18 mph 1014.9mb 77f 76f
7:50am 5ft 7s 5s 16 18 mph 1014.5mb 77f 76f
6:50am 5ft 8s 5s 16 18 mph 1014.6mb 77f 76f
5:50am 5ft 8s 5s 18 20 mph 1014.4mb 78f 76f
4:50am 5ft 7s 5s 18 20 mph 1014.8mb 78f 77f
3:50am 5ft 8s 5s 18 20 mph 1015.3mb 78f 77f
2:50am 5ft 7s 5s 18 22 mph 1016mb 78f 77f
1:50am 5ft 7s 5s 18 20 mph 1016.1mb 78f 77f
12:50am 5ft 7s 5s 16 18 mph 1016mb 78f 77f
Thu 02/23 11:50pm 5ft 7s 6s 16 18 mph 1015.7mb 78f 77f
10:50pm 5ft 7s 6s 13 18 mph 1015mb 78f 77f
9:50pm 5ft 8s 5s 13 18 mph 1014.5mb 78f 77f
8:50pm 5.5ft 7s 6s 13 16 mph 1014.1mb 78f 77f
7:50pm 5ft 8s 6s 16 18 mph 1013.2mb 78f 77f
6:50pm 5ft 8s 5s 16 18 mph 1013.2mb 78f 77f
5:50pm 5ft 7s 6s 13 16 mph 1013.5mb 78f 77f
4:50pm 5ft 8s 5s 18 20 mph 1013.6mb 78f 77f
3:50pm 5.5ft 6s 5s 18 20 mph 1014.5mb 78f 77f
2:50pm 5ft 6s 5s 18 22 mph 1015.1mb 78f 77f
1:50pm 5ft 7s 5s 20 22 mph 1015.4mb 78f 77f
12:50pm 5.5ft 7s 5s 18 22 mph 1015.8mb 78f 77f
11:50am 6ft 7s 6s 18 20 mph 1015.5mb 77f 77f
10:50am 5.5ft 7s 6s 16 20 mph 1014.7mb 77f 77f
9:50am 5ft 7s 5s 18 20 mph 1014.1mb 77f 77f
8:50am 6ft 8s 6s 18 20 mph 1013.6mb 77f 77f
7:50am 6ft 7s 5s 18 20 mph 1013.2mb 77f 77f
6:50am 6ft 7s 5s 20 25 mph 1012.6mb 77f 77f
5:50am 6ft 8s 6s 20 25 mph 1012.9mb 77f 77f
4:50am 5.5ft 7s 6s 13 18 mph 1014mb 77f 77f
3:50am 5.5ft 7s 6s 13 18 mph 1014.8mb 77f 77f
2:50am 5.5ft 7s 5s 18 22 mph 1014.5mb 77f 77f
1:50am 6ft 7s 6s 20 22 mph 1014.3mb 78f 77f
12:50am 5.5ft 8s 5s 20 25 mph 1014mb 78f 77f
Wed 02/22 11:50pm 5.5ft 7s 5s 18 20 mph 1014.1mb 78f 77f
10:50pm 5.5ft 7s 5s 18 20 mph 1013.1mb 78f 77f
9:50pm 5ft 7s 5s 18 22 mph 1012.4mb 78f 78f
8:50pm 5ft 8s 5s 18 22 mph 1011.8mb 78f 78f
7:50pm 5ft 7s 5s 18 22 mph 1011mb 78f 78f
6:50pm 5ft 7s 6s 16 18 mph 1010.9mb 78f 78f
5:50pm 5ft 9s 6s 16 18 mph 1011.2mb 78f 78f